Time;durP1;ratioP1;P1;durP2;ratioP2;P2;SDS_P1;SDS_P2;PMS_P1;PMS_P2;Temp;Humidity;BMP_temperature;BMP_pressure;BME280_temperature;BME280_humidity;BME280_pressure;Samples;Min_cycle;Max_cycle;Signal;HPM_P1;HPM_P2
2023/12/29 00:01:50;;;;;;;3.75;1.80;;;;;;;;;;5045653;28;20160;-79
2023/12/29 00:04:25;;;;;;;3.60;2.05;;;;;;;;;;5055095;28;20012;-78
2023/12/29 00:06:59;;;;;;;4.22;1.60;;;;;;;;;;5055518;28;20041;-81
2023/12/29 00:09:24;;;;;;;2.90;1.75;;;;;;;;;;5043892;28;20053;-80
2023/12/29 00:11:55;;;;;;;2.13;1.58;;;;;;;;;;5043856;28;20037;-80
2023/12/29 00:14:26;;;;;;;2.55;1.70;;;;;;;;;;5043004;28;20048;-79
2023/12/29 00:16:51;;;;;;;2.92;1.90;;;;;;;;;;5041247;28;20029;-80
2023/12/29 00:19:19;;;;;;;4.45;2.10;;;;;;;;;;5040694;28;20451;-79
2023/12/29 00:21:44;;;;;;;2.92;1.88;;;;;;;;;;5039702;28;20030;-80
2023/12/29 00:24:12;;;;;;;3.63;2.03;;;;;;;;;;5043003;28;20028;-80
2023/12/29 00:26:45;;;;;;;3.53;2.15;;;;;;;;;;5042801;28;20030;-79
2023/12/29 00:29:14;;;;;;;3.20;1.88;;;;;;;;;;5043712;28;20029;-78
2023/12/29 00:31:40;;;;;;;3.40;2.00;;;;;;;;;;5040241;28;20041;-80
2023/12/29 00:34:07;;;;;;;4.07;2.15;;;;;;;;;;5041561;28;20108;-79
2023/12/29 00:36:33;;;;;;;3.33;2.00;;;;;;;;;;5041439;28;20062;-78
2023/12/29 00:38:58;;;;;;;5.75;2.20;;;;;;;;;;5036917;28;20030;-78
2023/12/29 00:41:24;;;;;;;5.25;2.65;;;;;;;;;;5037912;28;20495;-79
2023/12/29 00:43:49;;;;;;;3.80;2.08;;;;;;;;;;5037480;28;20021;-79
2023/12/29 00:46:25;;;;;;;3.80;2.10;;;;;;;;;;5038659;28;20029;-79
2023/12/29 00:48:50;;;;;;;4.18;2.17;;;;;;;;;;5041978;28;20112;-80
2023/12/29 00:51:21;;;;;;;3.15;2.40;;;;;;;;;;5042188;28;20057;-79
2023/12/29 00:53:48;;;;;;;5.07;2.55;;;;;;;;;;5042505;28;20104;-79
2023/12/29 00:56:21;;;;;;;3.40;2.20;;;;;;;;;;5038402;28;20025;-79
2023/12/29 00:58:52;;;;;;;3.23;2.30;;;;;;;;;;5037023;28;20026;-79
2023/12/29 01:01:25;;;;;;;4.25;2.42;;;;;;;;;;5037201;28;20036;-79
2023/12/29 01:03:54;;;;;;;5.35;2.92;;;;;;;;;;5037275;28;20437;-78
2023/12/29 01:06:30;;;;;;;4.53;2.50;;;;;;;;;;5037766;28;20025;-78
2023/12/29 01:08:58;;;;;;;3.97;2.40;;;;;;;;;;5038847;28;20025;-79
2023/12/29 01:11:26;;;;;;;7.47;2.50;;;;;;;;;;5036784;28;20025;-78
2023/12/29 01:13:57;;;;;;;3.53;2.38;;;;;;;;;;5037355;28;20029;-80
2023/12/29 01:16:22;;;;;;;6.82;2.42;;;;;;;;;;5042829;28;20030;-80
2023/12/29 01:18:58;;;;;;;5.18;2.72;;;;;;;;;;5041463;28;20026;-79
2023/12/29 01:21:34;;;;;;;4.30;2.70;;;;;;;;;;5041788;28;20068;-80
2023/12/29 01:24:00;;;;;;;4.70;2.60;;;;;;;;;;5042685;28;20013;-80
2023/12/29 01:26:26;;;;;;;8.07;2.58;;;;;;;;;;5041399;28;20037;-79
2023/12/29 01:28:57;;;;;;;3.70;2.45;;;;;;;;;;5042010;28;20021;-79
2023/12/29 01:31:45;;;;;;;4.38;2.13;;;;;;;;;;5038472;28;20048;-80
2023/12/29 01:34:10;;;;;;;3.83;2.53;;;;;;;;;;5041511;28;20026;-79
2023/12/29 01:36:47;;;;;;;3.83;2.17;;;;;;;;;;5038085;28;20033;-80
2023/12/29 01:39:17;;;;;;;4.40;2.60;;;;;;;;;;5038160;28;20401;-79
2023/12/29 01:41:42;;;;;;;7.65;3.03;;;;;;;;;;5042754;28;20048;-79
2023/12/29 01:44:21;;;;;;;6.35;3.05;;;;;;;;;;5040428;28;20026;-78
2023/12/29 01:47:18;;;;;;;3.92;2.70;;;;;;;;;;5040954;28;20040;-80
2023/12/29 01:49:48;;;;;;;4.43;2.47;;;;;;;;;;5042395;28;20025;-79
2023/12/29 01:52:14;;;;;;;3.45;2.40;;;;;;;;;;5041046;28;20056;-80
2023/12/29 01:54:54;;;;;;;3.47;2.60;;;;;;;;;;5041760;28;20040;-79
2023/12/29 01:57:29;;;;;;;4.53;2.30;;;;;;;;;;5042447;28;20092;-79
2023/12/29 01:59:54;;;;;;;4.53;2.20;;;;;;;;;;5042509;28;20034;-79
2023/12/29 02:02:22;;;;;;;4.10;2.00;;;;;;;;;;5042892;28;20029;-79
2023/12/29 02:04:54;;;;;;;5.85;2.20;;;;;;;;;;5041052;28;20024;-79
2023/12/29 02:07:19;;;;;;;4.03;1.92;;;;;;;;;;5037815;28;20036;-79
2023/12/29 02:09:56;;;;;;;;;;;;;;;;;;;;;
2023/12/29 02:12:21;;;;;;;4.00;1.70;;;;;;;;;;5035824;28;20403;-80
2023/12/29 02:14:50;;;;;;;3.95;1.73;;;;;;;;;;5035607;28;20049;-79
2023/12/29 02:17:26;;;;;;;2.58;1.75;;;;;;;;;;5035717;28;20021;-79
2023/12/29 02:19:51;;;;;;;2.58;1.70;;;;;;;;;;5034357;28;20124;-79
2023/12/29 02:22:26;;;;;;;3.00;1.77;;;;;;;;;;5033842;28;20049;-78
2023/12/29 02:24:54;;;;;;;2.42;1.65;;;;;;;;;;5035202;28;20025;-79
2023/12/29 02:27:54;;;;;;;2.55;1.60;;;;;;;;;;5036127;28;20028;-78
2023/12/29 02:30:43;;;;;;;2.33;1.67;;;;;;;;;;5035337;28;20029;-78
2023/12/29 02:33:21;;;;;;;4.15;2.00;;;;;;;;;;5034358;28;20036;-78
2023/12/29 02:35:54;;;;;;;4.57;1.77;;;;;;;;;;5034414;28;20025;-79
2023/12/29 02:38:19;;;;;;;5.75;1.92;;;;;;;;;;5034261;28;20053;-79
2023/12/29 02:40:54;;;;;;;4.22;1.90;;;;;;;;;;5034693;28;20022;-78
2023/12/29 02:43:35;;;;;;;2.97;1.90;;;;;;;;;;5033769;28;20022;-79
2023/12/29 02:46:05;;;;;;;5.47;1.90;;;;;;;;;;5034307;28;20040;-79
2023/12/29 02:48:35;;;;;;;2.80;1.63;;;;;;;;;;5035375;28;20029;-78
2023/12/29 02:51:05;;;;;;;2.28;1.67;;;;;;;;;;5035270;28;20029;-78
2023/12/29 02:53:38;;;;;;;4.38;2.05;;;;;;;;;;5035872;28;20025;-78
2023/12/29 02:56:16;;;;;;;2.45;1.80;;;;;;;;;;5038356;28;20056;-78
2023/12/29 02:58:45;;;;;;;3.63;1.60;;;;;;;;;;5038414;28;20068;-79
2023/12/29 03:01:11;;;;;;;1.95;1.48;;;;;;;;;;5038561;28;20032;-79
2023/12/29 03:03:49;;;;;;;2.92;1.65;;;;;;;;;;5037297;28;20459;-80
2023/12/29 03:06:24;;;;;;;2.97;1.67;;;;;;;;;;5038939;28;20025;-79
2023/12/29 03:08:58;;;;;;;2.85;1.60;;;;;;;;;;5043842;28;20378;-78
2023/12/29 03:11:23;;;;;;;2.63;1.50;;;;;;;;;;5041566;28;20029;-80
2023/12/29 03:13:48;;;;;;;2.28;1.30;;;;;;;;;;5039254;28;20029;-77
2023/12/29 03:16:20;;;;;;;4.25;1.65;;;;;;;;;;5039837;28;20538;-80
2023/12/29 03:18:50;;;;;;;2.83;1.60;;;;;;;;;;5040363;28;20028;-77
2023/12/29 03:21:15;;;;;;;1.73;1.33;;;;;;;;;;5048128;28;20036;-79
2023/12/29 03:23:45;;;;;;;1.85;1.40;;;;;;;;;;5053542;28;20026;-79
2023/12/29 03:26:10;;;;;;;3.88;1.45;;;;;;;;;;5048418;28;20060;-79
2023/12/29 03:28:47;;;;;;;2.00;1.40;;;;;;;;;;5036754;28;20041;-80
2023/12/29 03:31:12;;;;;;;2.10;1.30;;;;;;;;;;5044060;28;20025;-80
2023/12/29 03:33:58;;;;;;;2.60;1.50;;;;;;;;;;5038025;28;20026;-79
2023/12/29 03:36:41;;;;;;;2.75;1.33;;;;;;;;;;5037602;28;20103;-78
2023/12/29 03:39:44;;;;;;;2.30;1.33;;;;;;;;;;5035880;28;20116;-79
2023/12/29 03:42:27;;;;;;;;;;;;;;;;;;;;;
2023/12/29 03:44:53;;;;;;;2.30;1.30;;;;;;;;;;5037856;28;20028;-78
2023/12/29 03:47:46;;;;;;;1.88;1.25;;;;;;;;;;5037677;28;20056;-79
2023/12/29 03:50:16;;;;;;;3.05;1.80;;;;;;;;;;5037789;28;20102;-79
2023/12/29 03:52:42;;;;;;;2.65;1.40;;;;;;;;;;5038808;28;20105;-80
2023/12/29 03:55:15;;;;;;;1.80;1.30;;;;;;;;;;5038717;28;20053;-79
2023/12/29 03:57:42;;;;;;;2.10;1.38;;;;;;;;;;5036893;28;20574;-79
2023/12/29 04:00:22;;;;;;;1.92;1.10;;;;;;;;;;5037784;28;20025;-78
2023/12/29 04:03:04;;;;;;;1.45;1.10;;;;;;;;;;5036206;28;20021;-79
2023/12/29 04:05:29;;;;;;;1.83;1.20;;;;;;;;;;5035982;28;20021;-78
2023/12/29 04:08:03;;;;;;;1.95;1.08;;;;;;;;;;5037146;28;20376;-79
2023/12/29 04:10:29;;;;;;;1.08;0.98;;;;;;;;;;5036055;28;20029;-78
2023/12/29 04:12:54;;;;;;;1.63;1.13;;;;;;;;;;5036501;28;20037;-79
2023/12/29 04:15:26;;;;;;;1.10;0.82;;;;;;;;;;5037113;28;20151;-79
2023/12/29 04:17:51;;;;;;;1.80;1.25;;;;;;;;;;5035986;28;20033;-80
2023/12/29 04:20:25;;;;;;;1.67;1.10;;;;;;;;;;5036881;28;20026;-79
2023/12/29 04:22:59;;;;;;;1.67;1.17;;;;;;;;;;5037022;28;20025;-79
2023/12/29 04:25:26;;;;;;;4.82;1.15;;;;;;;;;;5037099;28;20113;-79
2023/12/29 04:27:54;;;;;;;1.88;0.88;;;;;;;;;;5042037;28;20477;-78
2023/12/29 04:30:19;;;;;;;1.08;0.88;;;;;;;;;;5042227;28;20021;-80
2023/12/29 04:33:01;;;;;;;0.93;0.75;;;;;;;;;;5041743;28;20499;-79
2023/12/29 04:35:27;;;;;;;0.70;0.68;;;;;;;;;;5036981;28;20029;-79
2023/12/29 04:38:05;;;;;;;1.15;0.90;;;;;;;;;;5036444;28;20044;-80
2023/12/29 04:40:30;;;;;;;0.88;0.77;;;;;;;;;;5036463;28;20025;-79
2023/12/29 04:43:01;;;;;;;3.72;0.98;;;;;;;;;;5034855;28;20036;-79
2023/12/29 04:45:36;;;;;;;1.42;1.02;;;;;;;;;;5036663;28;20523;-79
2023/12/29 04:48:01;;;;;;;3.63;1.00;;;;;;;;;;5036694;28;20084;-79
2023/12/29 04:50:30;;;;;;;1.70;0.90;;;;;;;;;;5036158;28;20476;-80
2023/12/29 04:52:57;;;;;;;2.80;1.00;;;;;;;;;;5036571;28;20029;-79
2023/12/29 04:55:36;;;;;;;1.70;0.93;;;;;;;;;;5043486;28;20060;-80
2023/12/29 04:58:08;;;;;;;0.70;0.70;;;;;;;;;;5043319;28;20033;-80
2023/12/29 05:00:34;;;;;;;1.90;0.80;;;;;;;;;;5043051;28;20053;-79
2023/12/29 05:03:06;;;;;;;0.77;0.75;;;;;;;;;;5043523;28;20033;-79
2023/12/29 05:05:31;;;;;;;3.20;0.77;;;;;;;;;;5042679;28;20025;-81
2023/12/29 05:08:05;;;;;;;1.65;1.00;;;;;;;;;;5043705;28;20025;-80
2023/12/29 05:10:48;;;;;;;0.80;0.80;;;;;;;;;;5043448;28;20576;-80
2023/12/29 05:13:19;;;;;;;1.00;0.90;;;;;;;;;;5043671;28;20022;-79
2023/12/29 05:15:44;;;;;;;1.58;1.00;;;;;;;;;;5043174;28;20022;-79
2023/12/29 05:18:10;;;;;;;1.20;0.88;;;;;;;;;;5043191;28;20052;-79
2023/12/29 05:20:40;;;;;;;1.60;0.90;;;;;;;;;;5043401;28;20382;-79
2023/12/29 05:23:17;;;;;;;1.25;1.00;;;;;;;;;;5041841;28;20040;-80
2023/12/29 05:25:47;;;;;;;1.45;0.93;;;;;;;;;;5042090;28;20104;-80
2023/12/29 05:28:27;;;;;;;1.05;0.95;;;;;;;;;;5041458;28;20484;-81
2023/12/29 05:30:57;;;;;;;1.42;0.90;;;;;;;;;;5042336;28;20033;-80
2023/12/29 05:33:22;;;;;;;1.45;0.93;;;;;;;;;;5043381;28;20399;-81
2023/12/29 05:35:56;;;;;;;0.85;0.77;;;;;;;;;;5041581;28;20053;-80
2023/12/29 05:38:53;;;;;;;;;;;;;;;;;;;;;
2023/12/29 05:41:23;;;;;;;3.97;1.25;;;;;;;;;;5043275;28;20085;-80
2023/12/29 05:43:54;;;;;;;1.85;1.27;;;;;;;;;;5041371;28;20492;-79
2023/12/29 05:46:51;;;;;;;1.58;1.13;;;;;;;;;;5036268;28;20125;-78
2023/12/29 05:49:39;;;;;;;1.13;0.90;;;;;;;;;;5034501;28;20369;-81
2023/12/29 05:52:28;;;;;;;1.45;1.10;;;;;;;;;;5034280;28;20033;-79
2023/12/29 05:55:03;;;;;;;1.38;0.90;;;;;;;;;;5034950;28;20476;-78
2023/12/29 05:57:56;;;;;;;1.55;1.05;;;;;;;;;;5035354;28;20044;-78
2023/12/29 06:00:33;;;;;;;1.80;1.23;;;;;;;;;;5040567;28;20034;-79
2023/12/29 06:03:08;;;;;;;1.30;1.00;;;;;;;;;;5043510;28;20040;-79
2023/12/29 06:05:43;;;;;;;1.63;1.17;;;;;;;;;;5041700;28;20065;-79
2023/12/29 06:08:32;;;;;;;1.45;1.20;;;;;;;;;;5040764;28;20106;-80
2023/12/29 06:11:01;;;;;;;3.75;1.10;;;;;;;;;;5037183;28;20037;-79
2023/12/29 06:13:30;;;;;;;2.97;1.17;;;;;;;;;;5036638;28;20039;-79
2023/12/29 06:16:01;;;;;;;1.38;1.02;;;;;;;;;;5033148;28;20044;-78
2023/12/29 06:18:48;;;;;;;2.47;1.20;;;;;;;;;;5032595;28;20036;-78
2023/12/29 06:21:21;;;;;;;1.30;1.00;;;;;;;;;;5033864;28;20053;-79
2023/12/29 06:24:15;;;;;;;1.70;1.10;;;;;;;;;;5032920;28;20068;-78
2023/12/29 06:26:58;;;;;;;;;;;;;;;;;;;;;
2023/12/29 06:29:49;;;;;;;5.07;1.10;;;;;;;;;;5036786;28;20025;-78
2023/12/29 06:32:30;;;;;;;2.63;1.20;;;;;;;;;;5037902;28;20029;-79
2023/12/29 06:35:06;;;;;;;1.33;1.10;;;;;;;;;;5038704;28;20030;-79
2023/12/29 06:40:43;;;;;;;;;;;;;;;;;;;;;
2023/12/29 06:43:21;;;;;;;2.63;0.93;;;;;;;;;;5049360;28;20052;-78
2023/12/29 06:46:08;;;;;;;1.63;1.10;;;;;;;;;;5035358;28;20053;-79
2023/12/29 06:48:38;;;;;;;3.60;1.30;;;;;;;;;;5036773;28;20100;-78
2023/12/29 06:51:07;;;;;;;4.63;1.10;;;;;;;;;;5042702;28;20025;-80
2023/12/29 06:53:40;;;;;;;2.92;1.30;;;;;;;;;;5043924;28;20418;-80
2023/12/29 06:56:14;;;;;;;1.45;1.00;;;;;;;;;;5046427;28;20060;-80
2023/12/29 06:58:47;;;;;;;1.45;1.00;;;;;;;;;;5043513;28;20090;-79
2023/12/29 07:01:18;;;;;;;1.15;0.73;;;;;;;;;;5044104;28;20120;-80
2023/12/29 07:03:44;;;;;;;2.17;1.25;;;;;;;;;;5042827;28;20029;-80
2023/12/29 07:06:19;;;;;;;1.35;0.98;;;;;;;;;;5037200;28;20037;-78
2023/12/29 07:08:45;;;;;;;1.38;1.05;;;;;;;;;;5036266;28;20516;-77
2023/12/29 07:11:15;;;;;;;2.63;1.20;;;;;;;;;;5040731;28;20029;-79
2023/12/29 07:13:53;;;;;;;4.45;1.20;;;;;;;;;;5040375;28;20051;-79
2023/12/29 07:16:24;;;;;;;2.42;1.00;;;;;;;;;;5040555;28;20026;-79
2023/12/29 07:18:49;;;;;;;3.72;1.17;;;;;;;;;;5040801;28;20083;-79
2023/12/29 07:21:16;;;;;;;1.60;1.10;;;;;;;;;;5037197;28;20477;-79
2023/12/29 07:23:46;;;;;;;1.65;1.00;;;;;;;;;;5036557;28;20064;-80
2023/12/29 07:26:25;;;;;;;1.13;0.93;;;;;;;;;;5042324;28;20041;-81
2023/12/29 07:28:54;;;;;;;1.40;1.23;;;;;;;;;;5041855;28;20124;-80
2023/12/29 07:31:19;;;;;;;1.83;0.98;;;;;;;;;;5042886;28;20068;-79
2023/12/29 07:33:45;;;;;;;2.00;1.20;;;;;;;;;;5043681;28;20025;-78
2023/12/29 07:36:13;;;;;;;2.42;1.05;;;;;;;;;;5043767;28;20040;-78
2023/12/29 07:38:42;;;;;;;2.40;1.08;;;;;;;;;;5040311;28;20029;-79
2023/12/29 07:41:12;;;;;;;2.28;1.20;;;;;;;;;;5038789;28;20017;-79
2023/12/29 07:43:40;;;;;;;3.97;1.15;;;;;;;;;;5040130;28;20037;-79
2023/12/29 07:46:10;;;;;;;1.75;1.20;;;;;;;;;;5041172;28;20025;-79
2023/12/29 07:48:45;;;;;;;2.80;1.10;;;;;;;;;;5039120;28;20431;-80
2023/12/29 07:51:13;;;;;;;1.27;1.00;;;;;;;;;;5040047;28;20088;-78
2023/12/29 07:53:41;;;;;;;1.58;1.05;;;;;;;;;;5040511;28;20384;-80
2023/12/29 07:56:15;;;;;;;4.15;1.30;;;;;;;;;;5039878;28;20040;-79
2023/12/29 07:58:48;;;;;;;1.60;1.20;;;;;;;;;;5039927;28;20025;-79
2023/12/29 08:01:14;;;;;;;2.25;1.10;;;;;;;;;;5042655;28;20048;-79
2023/12/29 08:03:44;;;;;;;1.50;1.00;;;;;;;;;;5040657;28;20477;-79
2023/12/29 08:06:33;;;;;;;3.85;1.10;;;;;;;;;;5040585;28;20124;-80
2023/12/29 08:09:02;;;;;;;1.50;1.10;;;;;;;;;;5042799;28;20022;-80
2023/12/29 08:11:30;;;;;;;3.03;1.20;;;;;;;;;;5040909;28;20035;-81
2023/12/29 08:14:14;;;;;;;5.47;1.05;;;;;;;;;;5042857;28;20044;-79
2023/12/29 08:16:40;;;;;;;;;;;;;;;;;;5043964;28;20022;-80
2023/12/29 08:19:11;;;;;;;2.97;1.00;;;;;;;;;;5042582;28;19931;-81
2023/12/29 08:21:37;;;;;;;2.67;1.02;;;;;;;;;;5041819;28;20091;-81
2023/12/29 08:24:02;;;;;;;2.10;0.95;;;;;;;;;;5041959;28;20013;-78
2023/12/29 08:26:28;;;;;;;1.88;1.10;;;;;;;;;;5042451;28;20029;-80
2023/12/29 08:28:53;;;;;;;3.15;1.13;;;;;;;;;;5041802;28;20396;-80
2023/12/29 08:31:19;;;;;;;1.95;1.13;;;;;;;;;;5040876;28;20018;-80
2023/12/29 08:33:44;;;;;;;1.92;1.10;;;;;;;;;;5043121;28;20032;-80
2023/12/29 08:36:11;;;;;;;1.50;1.00;;;;;;;;;;5041713;28;20037;-80
2023/12/29 08:38:36;;;;;;;3.13;1.13;;;;;;;;;;5041257;28;20021;-80
2023/12/29 08:41:02;;;;;;;2.05;1.10;;;;;;;;;;5042843;28;20037;-81
2023/12/29 08:43:28;;;;;;;2.80;1.23;;;;;;;;;;5042477;28;20024;-80
2023/12/29 08:45:54;;;;;;;1.55;1.00;;;;;;;;;;5043001;28;20115;-80
2023/12/29 08:48:20;;;;;;;7.85;1.42;;;;;;;;;;5024745;28;20059;-79
2023/12/29 08:50:45;;;;;;;3.88;0.88;;;;;;;;;;5040686;28;20076;-79
2023/12/29 08:53:11;;;;;;;2.15;1.10;;;;;;;;;;5041895;28;20102;-79
2023/12/29 08:55:36;;;;;;;2.80;1.20;;;;;;;;;;5040572;28;20021;-80
2023/12/29 08:58:02;;;;;;;1.20;0.90;;;;;;;;;;5040809;28;20025;-80
2023/12/29 09:00:30;;;;;;;1.33;0.85;;;;;;;;;;5040737;28;20029;-80
2023/12/29 09:02:55;;;;;;;2.72;1.10;;;;;;;;;;5040579;28;20120;-79
2023/12/29 09:05:20;;;;;;;4.13;1.23;;;;;;;;;;5042350;28;20077;-79
2023/12/29 09:07:46;;;;;;;1.80;1.20;;;;;;;;;;5040519;28;20041;-80
2023/12/29 09:10:12;;;;;;;2.00;1.00;;;;;;;;;;5041639;28;20029;-80
2023/12/29 09:12:38;;;;;;;3.65;1.13;;;;;;;;;;5041128;28;20028;-79
2023/12/29 09:15:04;;;;;;;1.88;0.93;;;;;;;;;;5040443;28;20021;-79
2023/12/29 09:17:30;;;;;;;1.38;0.93;;;;;;;;;;5041232;28;20029;-79
2023/12/29 09:19:55;;;;;;;2.15;1.13;;;;;;;;;;5041861;28;20033;-79
2023/12/29 09:22:20;;;;;;;2.25;1.10;;;;;;;;;;5042474;28;20053;-79
2023/12/29 09:24:46;;;;;;;2.47;1.23;;;;;;;;;;5042452;28;20072;-80
2023/12/29 09:27:11;;;;;;;3.25;1.20;;;;;;;;;;5042286;28;20045;-79
2023/12/29 09:29:36;;;;;;;6.78;1.30;;;;;;;;;;5042067;28;20021;-81
2023/12/29 09:32:02;;;;;;;1.95;1.10;;;;;;;;;;5041723;28;20029;-80
2023/12/29 09:34:27;;;;;;;1.33;1.00;;;;;;;;;;5042179;28;20018;-80
2023/12/29 09:36:52;;;;;;;1.87;1.10;;;;;;;;;;5041650;28;20025;-79
2023/12/29 09:39:18;;;;;;;2.33;1.20;;;;;;;;;;5042344;28;20266;-79
2023/12/29 09:41:46;;;;;;;1.47;1.00;;;;;;;;;;5042299;28;20255;-80
2023/12/29 09:44:14;;;;;;;5.05;1.10;;;;;;;;;;5041869;28;20282;-79
2023/12/29 09:46:42;;;;;;;3.28;1.38;;;;;;;;;;5038421;28;20029;-78
2023/12/29 09:49:08;;;;;;;3.35;1.38;;;;;;;;;;5035547;28;20021;-79
2023/12/29 09:51:34;;;;;;;2.38;0.88;;;;;;;;;;5035755;28;20103;-77
2023/12/29 09:54:00;;;;;;;1.42;1.00;;;;;;;;;;5035874;28;20025;-78
2023/12/29 09:56:26;;;;;;;1.20;0.85;;;;;;;;;;5041154;28;20033;-78
2023/12/29 09:58:53;;;;;;;1.08;0.98;;;;;;;;;;5051571;28;20025;-78
2023/12/29 10:01:21;;;;;;;0.85;0.70;;;;;;;;;;5052633;28;20038;-79
2023/12/29 10:03:47;;;;;;;2.30;1.10;;;;;;;;;;5039865;28;20511;-79
2023/12/29 10:06:14;;;;;;;1.48;1.00;;;;;;;;;;5040725;28;20033;-79
2023/12/29 10:08:45;;;;;;;1.35;1.00;;;;;;;;;;5041006;28;20397;-78
2023/12/29 10:11:11;;;;;;;0.95;0.70;;;;;;;;;;5040841;28;20122;-79
2023/12/29 10:13:38;;;;;;;1.77;0.98;;;;;;;;;;5041286;28;20030;-80
2023/12/29 10:16:39;;;;;;;3.25;1.00;;;;;;;;;;5040942;28;20040;-79
2023/12/29 10:19:39;;;;;;;1.13;0.90;;;;;;;;;;5040015;28;20037;-77
2023/12/29 10:22:15;;;;;;;2.40;0.93;;;;;;;;;;5039900;28;20048;-78
2023/12/29 10:24:43;;;;;;;1.80;0.70;;;;;;;;;;5038057;28;20128;-78
2023/12/29 10:27:09;;;;;;;1.58;1.10;;;;;;;;;;5039687;28;20402;-79
2023/12/29 10:29:34;;;;;;;1.73;0.88;;;;;;;;;;5039476;28;20028;-78
2023/12/29 10:31:59;;;;;;;2.55;1.15;;;;;;;;;;5037340;28;20485;-79
2023/12/29 10:34:29;;;;;;;2.70;0.80;;;;;;;;;;5039405;28;20112;-79
2023/12/29 10:36:55;;;;;;;2.08;0.90;;;;;;;;;;5041097;28;20285;-79
2023/12/29 10:39:28;;;;;;;1.83;0.82;;;;;;;;;;5092457;22;20036;-80
2023/12/29 10:42:31;;;;;;;2.85;1.02;;;;;;;;;;5086736;28;20036;-79
2023/12/29 10:45:13;;;;;;;1.83;1.00;;;;;;;;;;5071052;28;20398;-78
2023/12/29 10:47:55;;;;;;;1.30;0.80;;;;;;;;;;5098568;28;20051;-79
2023/12/29 10:50:29;;;;;;;1.60;1.05;;;;;;;;;;5099325;28;20030;-79
2023/12/29 10:53:13;;;;;;;1.50;0.85;;;;;;;;;;5099524;28;20035;-79
2023/12/29 10:55:41;;;;;;;2.40;1.20;;;;;;;;;;5100725;28;20489;-79
2023/12/29 10:58:15;;;;;;;1.80;1.00;;;;;;;;;;5099343;28;20081;-79
2023/12/29 11:00:49;;;;;;;1.27;0.90;;;;;;;;;;5099000;28;20133;-79
2023/12/29 11:03:32;;;;;;;2.40;1.02;;;;;;;;;;5098564;28;20069;-79
2023/12/29 11:06:20;;;;;;;;;;;;;;;;;;;;;
2023/12/29 11:08:49;;;;;;;2.17;0.93;;;;;;;;;;5098873;28;20135;-79
2023/12/29 11:11:22;;;;;;;4.30;1.10;;;;;;;;;;5099787;28;20055;-79
2023/12/29 11:13:51;;;;;;;2.17;0.80;;;;;;;;;;5096994;28;20031;-77
2023/12/29 11:16:24;;;;;;;1.63;0.90;;;;;;;;;;5096397;28;20036;-79
2023/12/29 11:18:55;;;;;;;0.93;0.82;;;;;;;;;;5096893;28;20028;-78
2023/12/29 11:21:30;;;;;;;2.45;0.98;;;;;;;;;;5078949;28;20501;-79
2023/12/29 11:23:55;;;;;;;1.88;0.90;;;;;;;;;;5096669;28;20544;-79
2023/12/29 11:26:28;;;;;;;1.73;0.90;;;;;;;;;;5097879;28;20032;-80
2023/12/29 11:28:58;;;;;;;0.98;0.88;;;;;;;;;;5098044;28;20028;-79
2023/12/29 11:31:29;;;;;;;2.97;0.90;;;;;;;;;;5101035;28;20028;-79
2023/12/29 11:34:03;;;;;;;2.03;1.10;;;;;;;;;;5098792;28;20013;-79
2023/12/29 11:36:40;;;;;;;1.17;0.95;;;;;;;;;;5081293;28;20077;-79
2023/12/29 11:39:40;;;;;;;1.85;1.00;;;;;;;;;;5098888;28;20026;-79
2023/12/29 11:42:22;;;;;;;2.53;0.95;;;;;;;;;;5041890;28;20123;-79
2023/12/29 11:44:53;;;;;;;2.75;1.10;;;;;;;;;;5100364;28;20069;-79
2023/12/29 11:47:53;;;;;;;1.77;0.90;;;;;;;;;;5101956;28;20032;-80
2023/12/29 11:50:38;;;;;;;2.83;1.00;;;;;;;;;;5083609;28;20055;-79
2023/12/29 11:53:13;;;;;;;1.48;0.95;;;;;;;;;;5103874;28;20024;-80
2023/12/29 11:55:52;;;;;;;1.08;0.98;;;;;;;;;;5104884;28;20076;-81
2023/12/29 11:58:28;;;;;;;2.08;0.95;;;;;;;;;;5082326;28;20031;-76
2023/12/29 12:01:08;;;;;;;2.42;1.10;;;;;;;;;;5080451;28;20024;-76
2023/12/29 12:03:38;;;;;;;3.53;1.17;;;;;;;;;;5079413;28;20020;-78
2023/12/29 12:06:08;;;;;;;0.75;0.63;;;;;;;;;;5079408;28;20494;-79
2023/12/29 12:08:44;;;;;;;1.50;0.80;;;;;;;;;;5095928;28;20056;-79
2023/12/29 12:11:41;;;;;;;1.10;0.80;;;;;;;;;;5097534;28;20066;-78
2023/12/29 12:14:09;;;;;;;1.00;0.90;;;;;;;;;;5097634;28;20028;-80
2023/12/29 12:16:53;;;;;;;0.95;0.82;;;;;;;;;;5077728;28;20027;-79
2023/12/29 12:19:20;;;;;;;1.85;0.90;;;;;;;;;;5078750;28;20020;-79
2023/12/29 12:21:50;;;;;;;1.83;0.90;;;;;;;;;;5096344;28;20475;-79
2023/12/29 12:24:18;;;;;;;1.90;0.82;;;;;;;;;;5097411;28;20024;-79
2023/12/29 12:27:02;;;;;;;1.00;0.80;;;;;;;;;;5078783;28;20024;-79
2023/12/29 12:29:33;;;;;;;2.20;1.10;;;;;;;;;;5095979;28;20027;-79
2023/12/29 12:32:00;;;;;;;0.80;0.77;;;;;;;;;;5097451;28;20081;-77
2023/12/29 12:34:36;;;;;;;1.50;1.00;;;;;;;;;;5097499;28;20105;-80
2023/12/29 12:37:15;;;;;;;2.60;0.95;;;;;;;;;;5097554;28;20028;-80
2023/12/29 12:39:49;;;;;;;3.10;0.90;;;;;;;;;;5099530;28;20020;-79
2023/12/29 12:42:21;;;;;;;3.25;1.15;;;;;;;;;;5101030;28;20024;-79
2023/12/29 12:45:13;;;;;;;3.08;0.98;;;;;;;;;;5086006;28;20040;-80
2023/12/29 12:47:55;;;;;;;;;;;;;;;;;;;;;
2023/12/29 12:50:32;;;;;;;1.17;0.90;;;;;;;;;;5099767;28;20083;-80
2023/12/29 12:53:44;;;;;;;1.13;0.77;;;;;;;;;;5078953;28;20035;-79
2023/12/29 12:56:12;;;;;;;1.65;1.08;;;;;;;;;;5096350;28;20032;-78
2023/12/29 12:58:43;;;;;;;1.10;0.90;;;;;;;;;;5097572;28;20024;-79
2023/12/29 13:01:10;;;;;;;1.27;0.77;;;;;;;;;;5096993;28;20023;-78
2023/12/29 13:03:40;;;;;;;1.40;0.85;;;;;;;;;;5096510;28;20038;-79
2023/12/29 13:06:08;;;;;;;1.17;0.85;;;;;;;;;;5084714;28;20031;-80
2023/12/29 13:08:37;;;;;;;1.30;1.02;;;;;;;;;;5103163;28;20028;-80
2023/12/29 13:11:09;;;;;;;1.92;1.00;;;;;;;;;;5103999;28;20035;-80
2023/12/29 13:13:59;;;;;;;1.00;0.90;;;;;;;;;;5103445;28;20024;-80
2023/12/29 13:16:45;;;;;;;1.98;0.85;;;;;;;;;;5090480;28;20040;-79
2023/12/29 13:19:22;;;;;;;4.97;2.25;;;;;;;;;;5105638;28;20086;-79
2023/12/29 13:22:08;;;;;;;2.67;1.00;;;;;;;;;;5096606;28;20028;-78
2023/12/29 13:24:36;;;;;;;2.83;1.25;;;;;;;;;;5077259;28;20122;-76
2023/12/29 13:27:11;;;;;;;1.13;0.82;;;;;;;;;;5077284;28;20093;-79
2023/12/29 13:30:03;;;;;;;0.77;0.77;;;;;;;;;;5095405;28;20036;-79
2023/12/29 13:32:49;;;;;;;1.00;0.70;;;;;;;;;;5078260;28;20078;-78
2023/12/29 13:38:44;;;;;;;1.25;1.08;;;;;;;;;;5096315;28;20190;-79
2023/12/29 13:41:11;;;;;;;1.40;0.90;;;;;;;;;;5098722;28;20028;-79
2023/12/29 13:43:43;;;;;;;2.10;0.90;;;;;;;;;;5081904;28;20035;-80
2023/12/29 13:46:11;;;;;;;1.05;0.85;;;;;;;;;;5098899;28;20035;-80
2023/12/29 13:48:37;;;;;;;2.58;1.10;;;;;;;;;;5100105;28;20023;-81
2023/12/29 13:51:05;;;;;;;1.35;0.85;;;;;;;;;;5100301;28;20024;-80
2023/12/29 13:53:38;;;;;;;2.25;0.95;;;;;;;;;;5080193;28;20032;-79
2023/12/29 13:56:15;;;;;;;1.83;0.90;;;;;;;;;;5100279;28;20024;-80
2023/12/29 13:58:41;;;;;;;2.17;1.00;;;;;;;;;;5099600;28;20063;-79
2023/12/29 14:01:10;;;;;;;2.17;1.10;;;;;;;;;;5079662;28;20044;-79
2023/12/29 14:04:12;;;;;;;2.55;1.02;;;;;;;;;;5095551;28;20038;-79
2023/12/29 14:07:04;;;;;;;3.97;1.20;;;;;;;;;;5055905;28;20033;-80
2023/12/29 14:09:52;;;;;;;3.65;1.00;;;;;;;;;;5101252;28;20032;-79
2023/12/29 14:12:44;;;;;;;1.33;0.90;;;;;;;;;;5098331;28;20056;-80
2023/12/29 14:15:10;;;;;;;3.35;0.82;;;;;;;;;;5097034;28;20028;-78
2023/12/29 14:17:38;;;;;;;2.03;0.98;;;;;;;;;;5095881;28;20046;-79
2023/12/29 14:20:06;;;;;;;0.90;0.70;;;;;;;;;;5095388;28;20020;-77
2023/12/29 14:22:38;;;;;;;1.85;1.00;;;;;;;;;;5097169;28;20039;-79
2023/12/29 14:25:07;;;;;;;2.33;1.10;;;;;;;;;;5100149;28;20020;-80
2023/12/29 14:27:42;;;;;;;1.25;0.82;;;;;;;;;;5101074;28;20478;-79
2023/12/29 14:30:18;;;;;;;2.42;0.80;;;;;;;;;;5099472;28;20028;-79
2023/12/29 14:32:46;;;;;;;1.63;0.90;;;;;;;;;;5098641;28;20020;-79
2023/12/29 14:35:15;;;;;;;1.00;0.80;;;;;;;;;;5099220;28;20024;-81
2023/12/29 14:37:43;;;;;;;1.70;0.80;;;;;;;;;;5101289;28;20027;-79
2023/12/29 14:40:11;;;;;;;1.38;0.77;;;;;;;;;;5099655;28;20032;-79
2023/12/29 14:42:49;;;;;;;1.77;0.93;;;;;;;;;;5100769;28;20032;-80
2023/12/29 14:45:40;;;;;;;1.33;0.80;;;;;;;;;;5100116;28;20107;-79
2023/12/29 14:48:06;;;;;;;2.03;0.80;;;;;;;;;;5098601;28;20038;-79
2023/12/29 14:50:46;;;;;;;1.27;0.70;;;;;;;;;;5101239;28;20027;-80
2023/12/29 14:53:11;;;;;;;2.58;1.00;;;;;;;;;;5103360;28;20530;-80
2023/12/29 14:55:54;;;;;;;1.83;0.90;;;;;;;;;;5103385;28;20020;-79
2023/12/29 15:02:22;;;;;;;;;;;;;;;;;;;;;
2023/12/29 15:04:55;;;;;;;0.90;0.57;;;;;;;;;;5100129;28;20566;-80
2023/12/29 15:07:30;;;;;;;0.70;0.50;;;;;;;;;;5103280;28;20050;-79
2023/12/29 15:10:01;;;;;;;1.65;0.77;;;;;;;;;;5103172;28;20048;-80
2023/12/29 15:12:26;;;;;;;0.75;0.60;;;;;;;;;;5103441;28;20027;-81
2023/12/29 15:14:57;;;;;;;0.93;0.70;;;;;;;;;;5102750;28;20016;-80
2023/12/29 15:17:27;;;;;;;1.73;0.93;;;;;;;;;;5102949;28;20023;-80
2023/12/29 15:19:54;;;;;;;1.75;0.90;;;;;;;;;;5102698;28;20043;-78
2023/12/29 15:22:26;;;;;;;4.97;1.90;;;;;;;;;;5065262;28;20024;-78
2023/12/29 15:24:53;;;;;;;10.38;3.70;;;;;;;;;;5083171;28;20114;-79
2023/12/29 15:27:24;;;;;;;2.72;1.85;;;;;;;;;;5101222;28;20042;-79
2023/12/29 15:29:51;;;;;;;1.55;1.20;;;;;;;;;;5083258;28;20204;-78
2023/12/29 15:32:43;;;;;;;3.03;0.80;;;;;;;;;;5083887;28;20036;-79
2023/12/29 15:35:23;;;;;;;2.08;1.20;;;;;;;;;;5103629;28;20433;-80